createdAt,value
2018-07-26T00:00:17.693Z,25.60
2018-07-26T00:02:46.676Z,25.60
2018-07-26T00:05:15.711Z,25.50
2018-07-26T00:07:44.811Z,25.50
2018-07-26T00:10:13.858Z,25.50
2018-07-26T00:12:42.809Z,25.50
2018-07-26T00:15:11.853Z,25.40
2018-07-26T00:17:40.889Z,25.40
2018-07-26T00:20:09.946Z,25.40
2018-07-26T00:22:38.905Z,25.40
2018-07-26T00:25:07.926Z,25.30
2018-07-26T00:27:36.929Z,25.30
2018-07-26T00:30:06.011Z,25.20
2018-07-26T00:32:34.993Z,25.30
2018-07-26T00:35:04.617Z,25.30
2018-07-26T00:37:33.577Z,25.30
2018-07-26T00:40:02.604Z,25.20
2018-07-26T00:42:31.743Z,25.20
2018-07-26T00:45:00.735Z,25.10
2018-07-26T00:47:29.829Z,25.10
2018-07-26T00:49:58.873Z,25.10
2018-07-26T00:52:27.879Z,25.00
2018-07-26T00:54:56.973Z,25.00
2018-07-26T00:57:25.972Z,25.00
2018-07-26T00:59:54.965Z,24.90
2018-07-26T01:02:24.101Z,24.90
2018-07-26T01:04:53.053Z,24.90
2018-07-26T01:07:22.061Z,24.80
2018-07-26T01:09:51.078Z,24.80
2018-07-26T01:12:20.044Z,24.80
2018-07-26T01:14:49.032Z,24.80
2018-07-26T01:17:18.365Z,24.80
2018-07-26T01:19:47.352Z,24.70
2018-07-26T01:22:16.376Z,24.70
2018-07-26T01:24:45.824Z,24.70
2018-07-26T01:27:14.805Z,24.60
2018-07-26T01:29:43.844Z,24.60
2018-07-26T01:32:12.904Z,24.60
2018-07-26T01:34:41.880Z,24.60
2018-07-26T01:37:10.928Z,24.50
2018-07-26T01:39:39.948Z,24.50
2018-07-26T01:42:08.944Z,24.50
2018-07-26T01:44:37.974Z,24.50
2018-07-26T01:47:07.110Z,24.50
2018-07-26T01:49:36.162Z,24.40
2018-07-26T01:52:05.154Z,24.40
2018-07-26T01:54:34.148Z,24.40
2018-07-26T01:57:03.143Z,24.40
2018-07-26T01:59:32.278Z,24.30
2018-07-26T02:02:01.294Z,24.30
2018-07-26T02:04:30.281Z,24.30
2018-07-26T02:06:59.256Z,24.20
2018-07-26T02:09:28.285Z,24.20
2018-07-26T02:11:57.246Z,24.20
2018-07-26T02:14:31.677Z,24.20
2018-07-26T02:17:00.651Z,24.10
2018-07-26T02:19:30.181Z,24.10
2018-07-26T02:21:59.228Z,24.10
2018-07-26T02:24:28.289Z,24.10
2018-07-26T02:26:57.312Z,24.00
2018-07-26T02:29:26.380Z,24.00
2018-07-26T02:31:55.424Z,24.00
2018-07-26T02:34:24.421Z,24.00
2018-07-26T02:36:53.562Z,24.00
2018-07-26T02:39:22.526Z,23.90
2018-07-26T02:41:51.632Z,23.90
2018-07-26T02:44:20.639Z,23.90
2018-07-26T02:46:50.372Z,23.90
2018-07-26T02:49:19.372Z,23.90
2018-07-26T02:51:48.447Z,23.80
2018-07-26T02:54:17.460Z,23.80
2018-07-26T02:56:46.461Z,23.80
2018-07-26T02:59:15.470Z,23.80
2018-07-26T03:01:44.529Z,23.80
2018-07-26T03:04:13.510Z,23.70
2018-07-26T03:06:42.494Z,23.70
2018-07-26T03:09:11.525Z,23.70
2018-07-26T03:11:40.521Z,23.60
2018-07-26T03:14:09.506Z,23.60
2018-07-26T03:16:38.499Z,23.60
2018-07-26T03:19:07.522Z,23.60
2018-07-26T03:21:36.541Z,23.50
2018-07-26T03:24:05.558Z,23.50
2018-07-26T03:26:34.551Z,23.50
2018-07-26T03:29:03.584Z,23.50
2018-07-26T03:34:01.446Z,23.50
2018-07-26T03:36:30.445Z,23.40
2018-07-26T03:38:59.497Z,23.40
2018-07-26T03:41:28.573Z,23.40
2018-07-26T03:43:57.533Z,23.40
2018-07-26T03:46:26.545Z,23.40
2018-07-26T03:48:55.557Z,23.30
2018-07-26T03:51:24.656Z,23.30
2018-07-26T03:53:53.664Z,23.30
2018-07-26T03:56:22.621Z,23.30
2018-07-26T03:58:51.968Z,23.20
2018-07-26T04:01:21.139Z,23.20
2018-07-26T04:03:50.114Z,23.20
2018-07-26T04:06:19.133Z,23.20
2018-07-26T04:08:48.105Z,23.20
2018-07-26T04:11:17.281Z,23.20
2018-07-26T04:13:46.413Z,23.20
2018-07-26T04:16:15.429Z,23.20
2018-07-26T04:18:44.441Z,23.10
2018-07-26T04:21:13.505Z,23.10
2018-07-26T04:23:42.761Z,23.10
2018-07-26T04:28:40.509Z,23.10
2018-07-26T04:31:09.611Z,23.10
2018-07-26T04:33:38.889Z,23.10
2018-07-26T04:36:07.921Z,23.10
2018-07-26T04:38:36.877Z,23.20
2018-07-26T04:41:05.889Z,23.20
2018-07-26T04:43:34.885Z,23.20
2018-07-26T04:46:04.341Z,23.20
2018-07-26T04:48:33.590Z,23.30
2018-07-26T04:51:02.746Z,23.30
2018-07-26T04:53:31.739Z,23.30
2018-07-26T04:56:00.809Z,23.30
2018-07-26T04:58:30.369Z,23.40
2018-07-26T05:00:59.451Z,23.50
2018-07-26T05:03:28.537Z,23.50
2018-07-26T05:05:57.593Z,23.50
2018-07-26T05:08:26.725Z,23.60
2018-07-26T05:10:55.863Z,23.70
2018-07-26T05:13:25.005Z,23.70
2018-07-26T05:15:54.045Z,23.80
2018-07-26T05:18:23.056Z,23.90
2018-07-26T05:20:52.209Z,23.90
2018-07-26T05:23:21.401Z,24.00
2018-07-26T05:25:50.397Z,24.10
2018-07-26T05:28:19.419Z,24.20
2018-07-26T05:30:48.583Z,24.20
2018-07-26T05:33:17.575Z,24.30
2018-07-26T05:35:46.621Z,24.30
2018-07-26T05:38:15.702Z,24.40
2018-07-26T05:40:44.705Z,24.50
2018-07-26T05:43:13.768Z,24.60
2018-07-26T05:45:42.853Z,24.60
2018-07-26T05:48:11.877Z,24.70
2018-07-26T05:50:40.849Z,24.70
2018-07-26T05:53:09.867Z,24.80
2018-07-26T05:55:38.845Z,24.80
2018-07-26T05:58:07.821Z,24.90
2018-07-26T06:00:36.877Z,24.90
2018-07-26T06:03:06.143Z,24.90
2018-07-26T06:05:35.151Z,24.90
2018-07-26T06:08:04.142Z,25.00
2018-07-26T06:10:33.182Z,24.90
2018-07-26T06:13:02.193Z,25.00
2018-07-26T06:15:31.184Z,25.00
2018-07-26T06:18:00.145Z,25.10
2018-07-26T06:20:29.207Z,25.10
2018-07-26T06:22:58.364Z,25.10
2018-07-26T06:25:27.342Z,25.20
2018-07-26T06:27:56.413Z,25.20
2018-07-26T06:30:25.424Z,25.30
2018-07-26T06:32:54.493Z,25.30
2018-07-26T06:35:23.463Z,25.30
2018-07-26T06:37:52.446Z,25.40
2018-07-26T06:40:21.464Z,25.50
2018-07-26T06:42:50.472Z,25.60
2018-07-26T06:45:19.468Z,25.60
2018-07-26T06:50:17.128Z,25.80
2018-07-26T06:52:46.148Z,25.90
2018-07-26T07:00:12.446Z,26.10
2018-07-26T07:02:41.525Z,26.20
2018-07-26T07:05:10.905Z,26.30
2018-07-26T07:07:40.106Z,26.40
2018-07-26T07:10:09.100Z,26.50
2018-07-26T07:12:38.132Z,26.60
2018-07-26T07:15:07.131Z,26.60
2018-07-26T07:17:36.108Z,26.70
2018-07-26T07:20:05.916Z,26.80
2018-07-26T07:22:34.935Z,26.80
2018-07-26T07:25:03.986Z,26.90
2018-07-26T07:27:32.934Z,27.00
2018-07-26T07:30:01.951Z,27.00
2018-07-26T07:32:30.971Z,27.10
2018-07-26T07:35:00.012Z,27.20
2018-07-26T07:37:28.972Z,27.20
2018-07-26T07:39:57.934Z,27.30
2018-07-26T07:42:26.940Z,27.40
2018-07-26T07:44:55.935Z,27.40
2018-07-26T07:47:25.111Z,27.40
2018-07-26T07:49:54.100Z,27.50
2018-07-26T07:52:23.114Z,27.60
2018-07-26T07:54:52.146Z,27.60
2018-07-26T07:57:21.108Z,27.70
2018-07-26T07:59:50.102Z,27.80
2018-07-26T08:02:19.101Z,27.80
2018-07-26T08:04:48.115Z,27.90
2018-07-26T08:07:17.115Z,28.00
2018-07-26T08:09:46.083Z,28.00
2018-07-26T08:12:15.061Z,28.10
2018-07-26T08:14:44.062Z,28.10
2018-07-26T08:17:13.127Z,28.20
2018-07-26T08:19:42.121Z,28.30
2018-07-26T08:22:11.148Z,28.40
2018-07-26T08:24:40.167Z,28.50
2018-07-26T08:27:09.211Z,28.50
2018-07-26T08:32:07.349Z,28.60
2018-07-26T08:34:36.339Z,28.60
2018-07-26T08:37:05.604Z,28.60
2018-07-26T08:39:34.892Z,28.70
2018-07-26T08:42:03.888Z,28.70
2018-07-26T08:44:32.988Z,28.80
2018-07-26T08:47:01.961Z,28.90
2018-07-26T08:49:31.001Z,29.00
2018-07-26T08:54:28.652Z,29.10
2018-07-26T08:56:57.654Z,29.10
2018-07-26T08:59:26.646Z,29.20
2018-07-26T09:01:55.633Z,29.20
2018-07-26T09:04:24.759Z,29.30
2018-07-26T09:06:53.724Z,29.40
2018-07-26T09:09:22.662Z,29.50
2018-07-26T09:11:51.651Z,29.60
2018-07-26T09:14:20.676Z,29.60
2018-07-26T09:16:49.646Z,29.70
2018-07-26T09:19:18.660Z,29.70
2018-07-26T09:21:47.681Z,29.80
2018-07-26T09:24:16.696Z,29.90
2018-07-26T09:26:45.693Z,29.90
2018-07-26T09:29:14.784Z,30.00
2018-07-26T09:31:43.782Z,30.10
2018-07-26T09:34:12.825Z,30.10
2018-07-26T09:36:41.818Z,30.10
2018-07-26T09:39:15.912Z,30.20
2018-07-26T09:41:45.098Z,30.20
2018-07-26T09:44:14.134Z,30.30
2018-07-26T09:46:43.124Z,30.30
2018-07-26T09:49:12.110Z,30.40
2018-07-26T09:51:41.164Z,30.50
2018-07-26T09:54:10.166Z,30.50
2018-07-26T09:56:39.145Z,30.60
2018-07-26T09:59:08.172Z,30.60
2018-07-26T10:01:38.363Z,30.60
2018-07-26T10:04:07.321Z,30.60
2018-07-26T10:06:36.361Z,30.70
2018-07-26T10:09:08.734Z,30.70
2018-07-26T10:11:37.799Z,30.80
2018-07-26T10:14:06.792Z,30.90
2018-07-26T10:16:35.788Z,30.90
2018-07-26T10:19:04.806Z,31.00
2018-07-26T10:21:33.830Z,31.10
2018-07-26T10:24:02.831Z,31.10
2018-07-26T10:26:31.856Z,31.20
2018-07-26T10:29:00.829Z,31.20
2018-07-26T10:31:29.867Z,31.30
2018-07-26T10:33:59.468Z,31.40
2018-07-26T10:36:28.562Z,31.40
2018-07-26T10:38:57.670Z,31.50
2018-07-26T10:41:26.734Z,31.60
2018-07-26T10:43:55.762Z,31.70
2018-07-26T10:46:25.155Z,31.80
2018-07-26T10:48:54.196Z,31.80
2018-07-26T10:51:23.181Z,31.90
2018-07-26T10:53:52.128Z,32.00
2018-07-26T10:56:21.774Z,32.00
2018-07-26T10:58:50.785Z,32.10
2018-07-26T11:01:19.773Z,32.10
2018-07-26T11:03:48.812Z,32.20
2018-07-26T11:06:17.811Z,32.30
2018-07-26T11:08:46.873Z,32.40
2018-07-26T11:11:16.030Z,32.50
2018-07-26T11:13:45.050Z,32.50
2018-07-26T11:16:14.116Z,32.60
2018-07-26T11:18:43.122Z,32.70
2018-07-26T11:21:12.158Z,32.80
2018-07-26T11:23:41.179Z,32.80
2018-07-26T11:28:38.781Z,33.00
2018-07-26T11:31:07.801Z,33.00
2018-07-26T11:33:36.813Z,33.10
2018-07-26T11:36:05.858Z,33.20
2018-07-26T11:38:34.798Z,33.20
2018-07-26T11:41:03.855Z,33.30
2018-07-26T11:43:32.896Z,33.30
2018-07-26T11:46:01.894Z,33.40
2018-07-26T11:48:30.969Z,33.60
2018-07-26T11:50:59.957Z,33.60
2018-07-26T11:53:29.088Z,33.70
2018-07-26T11:55:58.077Z,33.60
2018-07-26T11:58:27.078Z,33.70
2018-07-26T12:00:56.079Z,33.80
2018-07-26T12:03:25.295Z,33.80
2018-07-26T12:05:54.293Z,33.90
2018-07-26T12:08:23.251Z,33.80
2018-07-26T12:10:52.250Z,33.70
2018-07-26T12:13:21.355Z,33.70
2018-07-26T12:15:50.368Z,33.80
2018-07-26T12:18:19.397Z,33.80
2018-07-26T12:20:48.555Z,33.90
2018-07-26T12:23:17.589Z,34.10
2018-07-26T12:25:47.466Z,34.10
2018-07-26T12:28:16.706Z,34.30
2018-07-26T12:30:45.722Z,34.40
2018-07-26T12:35:43.485Z,34.50
2018-07-26T12:38:12.474Z,34.50
2018-07-26T12:40:48.146Z,34.60
2018-07-26T12:43:17.377Z,34.70
2018-07-26T12:45:46.350Z,34.80
2018-07-26T12:50:44.017Z,34.90
2018-07-26T12:55:41.627Z,35.00
2018-07-26T12:58:10.728Z,35.10
2018-07-26T13:00:39.767Z,35.10
2018-07-26T13:03:08.860Z,35.20
2018-07-26T13:05:37.831Z,35.20
2018-07-26T13:08:06.846Z,35.30
2018-07-26T13:10:35.819Z,35.30
2018-07-26T13:13:04.853Z,35.40
2018-07-26T13:18:02.701Z,35.50
2018-07-26T13:20:31.721Z,35.60
2018-07-26T13:23:00.702Z,35.70
2018-07-26T13:25:29.956Z,35.70
2018-07-26T13:27:59.028Z,35.80
2018-07-26T13:30:28.066Z,35.90
2018-07-26T13:32:57.058Z,35.90
2018-07-26T13:35:26.330Z,36.00
2018-07-26T13:37:55.412Z,36.10
2018-07-26T13:40:24.392Z,36.20
2018-07-26T13:42:53.391Z,36.20
2018-07-26T13:45:22.430Z,36.20
2018-07-26T13:47:51.433Z,36.20
2018-07-26T13:50:21.161Z,36.30
2018-07-26T13:52:50.333Z,36.30
2018-07-26T13:55:19.354Z,36.10
2018-07-26T13:57:48.400Z,36.00
2018-07-26T14:00:17.413Z,36.00
2018-07-26T14:02:46.411Z,36.10
2018-07-26T14:05:15.428Z,36.10
2018-07-26T14:07:44.440Z,36.10
2018-07-26T14:10:13.434Z,36.10
2018-07-26T14:12:42.514Z,36.10
2018-07-26T14:15:11.772Z,36.20
2018-07-26T14:17:40.787Z,36.30
2018-07-26T14:20:11.327Z,36.40
2018-07-26T14:22:40.789Z,36.50
2018-07-26T14:25:09.785Z,36.50
2018-07-26T14:27:38.855Z,36.70
2018-07-26T14:30:08.375Z,36.90
2018-07-26T14:32:37.350Z,37.00
2018-07-26T14:37:35.164Z,37.40
2018-07-26T14:40:04.949Z,37.50
2018-07-26T14:42:33.985Z,37.60
2018-07-26T14:45:02.990Z,37.50
2018-07-26T14:47:32.017Z,37.50
2018-07-26T14:52:29.675Z,37.30
2018-07-26T14:54:58.687Z,37.20
2018-07-26T14:57:27.740Z,37.00
2018-07-26T14:59:56.823Z,36.90
2018-07-26T15:02:25.921Z,36.80
2018-07-26T15:04:54.969Z,36.80
2018-07-26T15:07:23.989Z,36.70
2018-07-26T15:09:53.023Z,36.60
2018-07-26T15:12:21.997Z,36.60
2018-07-26T15:14:51.543Z,36.50
2018-07-26T15:17:20.757Z,36.10
2018-07-26T15:19:49.873Z,35.70
2018-07-26T15:22:18.889Z,35.40
2018-07-26T15:24:47.848Z,35.30
2018-07-26T15:29:45.495Z,34.80
2018-07-26T15:32:14.742Z,34.50
2018-07-26T15:34:43.719Z,34.10
2018-07-26T15:39:41.372Z,33.40
2018-07-26T15:42:10.413Z,33.30
2018-07-26T15:44:39.481Z,32.90
2018-07-26T15:47:08.475Z,32.80
2018-07-26T15:49:37.543Z,32.50
2018-07-26T15:52:06.528Z,32.10
2018-07-26T15:54:35.531Z,31.80
2018-07-26T15:57:04.703Z,31.60
2018-07-26T15:59:33.914Z,31.50
2018-07-26T16:02:02.988Z,31.40
2018-07-26T16:04:31.941Z,31.30
2018-07-26T16:07:00.947Z,31.10
2018-07-26T16:09:30.021Z,31.10
2018-07-26T16:11:59.059Z,31.10
2018-07-26T16:14:28.098Z,31.10
2018-07-26T16:16:57.109Z,31.10
2018-07-26T16:19:26.112Z,31.10
2018-07-26T16:21:55.183Z,31.10
2018-07-26T16:24:24.858Z,30.90
2018-07-26T16:26:53.945Z,30.90
2018-07-26T16:29:23.040Z,30.90
2018-07-26T16:31:52.099Z,30.90
2018-07-26T16:36:50.258Z,30.90
2018-07-26T16:39:19.340Z,31.00
2018-07-26T16:41:48.298Z,31.00
2018-07-26T16:44:17.366Z,31.00
2018-07-26T16:46:46.368Z,31.00
2018-07-26T16:49:15.492Z,31.00
2018-07-26T16:51:44.468Z,31.10
2018-07-26T16:54:13.516Z,31.20
2018-07-26T16:56:42.536Z,31.10
2018-07-26T16:59:11.676Z,31.20
2018-07-26T17:01:40.688Z,31.20
2018-07-26T17:04:09.766Z,31.30
2018-07-26T17:06:38.862Z,31.30
2018-07-26T17:09:09.925Z,31.40
2018-07-26T17:11:38.936Z,31.40
2018-07-26T17:14:07.912Z,31.40
2018-07-26T17:16:36.984Z,31.50
2018-07-26T17:19:06.133Z,31.50
2018-07-26T17:21:35.132Z,31.60
2018-07-26T17:24:04.156Z,31.60
2018-07-26T17:26:33.140Z,31.70
2018-07-26T17:31:31.071Z,31.70
2018-07-26T17:34:00.096Z,31.70
2018-07-26T17:36:29.111Z,31.80
2018-07-26T17:38:58.194Z,31.80
2018-07-26T17:41:27.237Z,31.80
2018-07-26T17:44:02.997Z,31.90
2018-07-26T17:46:32.042Z,31.90
2018-07-26T17:49:01.021Z,31.80
2018-07-26T17:51:30.345Z,31.60
2018-07-26T17:53:59.360Z,31.60
2018-07-26T17:56:28.971Z,31.50
2018-07-26T17:58:58.057Z,31.50
2018-07-26T18:01:27.041Z,31.50
2018-07-26T18:03:56.022Z,31.50
2018-07-26T18:06:25.349Z,31.50
2018-07-26T18:08:54.409Z,31.60
2018-07-26T18:11:23.511Z,31.70
2018-07-26T18:16:21.308Z,31.90
2018-07-26T18:18:50.417Z,31.90
2018-07-26T18:21:19.741Z,32.00
2018-07-26T18:23:48.828Z,32.10
2018-07-26T18:26:17.825Z,32.10
2018-07-26T18:28:46.757Z,32.10
2018-07-26T18:31:15.860Z,32.10
2018-07-26T18:33:44.971Z,32.20
2018-07-26T18:36:14.107Z,32.10
2018-07-26T18:38:43.221Z,32.10
2018-07-26T18:41:12.229Z,32.10
2018-07-26T18:43:41.284Z,32.10
2018-07-26T18:46:10.263Z,32.00
2018-07-26T18:48:39.410Z,32.00
2018-07-26T18:51:08.381Z,32.00
2018-07-26T18:53:37.349Z,31.90
2018-07-26T18:56:06.423Z,31.80
2018-07-26T18:58:35.392Z,31.70
2018-07-26T19:01:04.436Z,31.50
2018-07-26T19:03:33.528Z,31.50
2018-07-26T19:06:02.567Z,31.60
2018-07-26T19:08:31.612Z,31.60
2018-07-26T19:11:00.654Z,31.50
2018-07-26T19:13:29.618Z,31.50
2018-07-26T19:15:58.578Z,31.40
2018-07-26T19:18:27.620Z,31.30
2018-07-26T19:20:56.666Z,31.30
2018-07-26T19:23:25.760Z,31.30
2018-07-26T19:25:54.830Z,31.20
2018-07-26T19:28:24.085Z,31.10
2018-07-26T19:30:53.112Z,31.10
2018-07-26T19:33:22.120Z,31.00
2018-07-26T19:35:51.121Z,31.00
2018-07-26T19:38:20.244Z,31.00
2018-07-26T19:40:49.282Z,30.80
2018-07-26T19:43:18.248Z,30.80
2018-07-26T19:45:47.274Z,30.80
2018-07-26T19:48:16.301Z,30.70
2018-07-26T19:53:14.032Z,30.60
2018-07-26T19:55:43.078Z,30.60
2018-07-26T19:58:12.202Z,30.60
2018-07-26T20:00:41.150Z,30.50
2018-07-26T20:03:10.170Z,30.40
2018-07-26T20:05:39.258Z,30.40
2018-07-26T20:10:37.146Z,30.40
2018-07-26T20:13:06.264Z,30.30
2018-07-26T20:15:35.246Z,30.30
2018-07-26T20:18:04.408Z,30.20
2018-07-26T20:20:33.404Z,30.20
2018-07-26T20:23:02.428Z,30.10
2018-07-26T20:25:31.390Z,30.10
2018-07-26T20:28:00.413Z,30.00
2018-07-26T20:30:29.443Z,29.90
2018-07-26T20:32:58.501Z,29.80
2018-07-26T20:35:27.433Z,29.80
2018-07-26T20:37:56.400Z,29.80
2018-07-26T20:40:25.373Z,29.70
2018-07-26T20:42:54.389Z,29.70
2018-07-26T20:45:23.398Z,29.70
2018-07-26T20:47:52.428Z,29.60
2018-07-26T20:50:21.427Z,29.60
2018-07-26T20:52:50.435Z,29.60
2018-07-26T20:55:19.434Z,29.50
2018-07-26T20:57:48.417Z,29.40
2018-07-26T21:00:17.474Z,29.30
2018-07-26T21:02:47.460Z,29.30
2018-07-26T21:05:16.429Z,29.20
2018-07-26T21:07:45.393Z,29.20
2018-07-26T21:10:14.446Z,29.10
2018-07-26T21:12:43.453Z,29.10
2018-07-26T21:15:12.429Z,29.00
2018-07-26T21:17:41.442Z,29.00
2018-07-26T21:20:10.517Z,28.90
2018-07-26T21:22:39.549Z,28.90
2018-07-26T21:25:08.581Z,28.80
2018-07-26T21:27:37.570Z,28.80
2018-07-26T21:30:07.272Z,28.70
2018-07-26T21:32:36.501Z,28.70
2018-07-26T21:35:06.649Z,28.60
2018-07-26T21:37:35.726Z,28.60
2018-07-26T21:40:05.973Z,28.50
2018-07-26T21:42:35.169Z,28.50
2018-07-26T21:45:04.583Z,28.40
2018-07-26T21:47:33.573Z,28.30
2018-07-26T21:50:02.733Z,28.30
2018-07-26T21:52:31.953Z,28.30
2018-07-26T21:55:00.949Z,28.20
2018-07-26T21:57:29.939Z,28.20
2018-07-26T21:59:58.979Z,28.20
2018-07-26T22:02:28.077Z,28.10
2018-07-26T22:04:57.093Z,28.10
2018-07-26T22:07:26.104Z,28.00
2018-07-26T22:09:55.113Z,28.00
2018-07-26T22:12:24.185Z,28.00
2018-07-26T22:14:53.181Z,28.00
2018-07-26T22:17:22.221Z,27.90
2018-07-26T22:19:51.217Z,27.90
2018-07-26T22:22:20.193Z,27.80
2018-07-26T22:24:49.201Z,27.80
2018-07-26T22:27:18.201Z,27.80
2018-07-26T22:29:47.181Z,27.70
2018-07-26T22:32:16.197Z,27.60
2018-07-26T22:34:45.191Z,27.50
2018-07-26T22:37:14.169Z,27.50
2018-07-26T22:39:43.121Z,27.50
2018-07-26T22:42:12.149Z,27.40
2018-07-26T22:44:41.162Z,27.40
2018-07-26T22:47:10.169Z,27.30
2018-07-26T22:52:07.765Z,27.20
2018-07-26T22:54:36.773Z,27.20
2018-07-26T22:57:05.810Z,27.20
2018-07-26T22:59:34.807Z,27.20
2018-07-26T23:02:03.820Z,27.10
2018-07-26T23:04:32.844Z,27.10
2018-07-26T23:07:01.841Z,27.10
2018-07-26T23:09:30.794Z,27.10
2018-07-26T23:11:59.934Z,27.10
2018-07-26T23:14:29.022Z,27.00
2018-07-26T23:16:57.992Z,27.10
2018-07-26T23:19:26.950Z,27.00
2018-07-26T23:21:56.054Z,27.00
2018-07-26T23:24:25.052Z,27.00
2018-07-26T23:26:54.049Z,27.10
2018-07-26T23:29:23.024Z,27.00
2018-07-26T23:31:52.018Z,27.00
2018-07-26T23:34:21.022Z,27.00
2018-07-26T23:36:50.064Z,27.00
2018-07-26T23:39:19.014Z,27.00
2018-07-26T23:41:47.991Z,27.00
2018-07-26T23:44:17.010Z,27.00
2018-07-26T23:46:45.953Z,27.00
2018-07-26T23:49:14.917Z,27.00
2018-07-26T23:51:43.927Z,27.00
2018-07-26T23:54:13.017Z,27.00
2018-07-26T23:56:42.089Z,26.90
2018-07-26T23:59:11.083Z,26.90
